sensor_id;sensor_type;location;lat;lon;timestamp;P1;durP1;ratioP1;P2;durP2;ratioP2
20166;SDS011;10243;49.118;8.508;2023-04-10T00:00:07;17.60;;;15.70;;
20166;SDS011;10243;49.118;8.508;2023-04-10T00:00:29;18.17;;;16.17;;
20166;SDS011;10243;49.118;8.508;2023-04-10T00:00:50;17.88;;;15.98;;
20166;SDS011;10243;49.118;8.508;2023-04-10T00:01:16;21.05;;;16.05;;
20166;SDS011;10243;49.118;8.508;2023-04-10T00:01:36;19.42;;;15.70;;
20166;SDS011;10243;49.118;8.508;2023-04-10T00:01:57;17.48;;;15.57;;
20166;SDS011;10243;49.118;8.508;2023-04-10T00:02:18;18.13;;;15.37;;
20166;SDS011;10243;49.118;8.508;2023-04-10T00:02:38;18.23;;;15.48;;
20166;SDS011;10243;49.118;8.508;2023-04-10T00:02:59;17.60;;;15.57;;
20166;SDS011;10243;49.118;8.508;2023-04-10T00:03:20;17.83;;;15.30;;
20166;SDS011;10243;49.118;8.508;2023-04-10T00:03:42;18.52;;;16.02;;
20166;SDS011;10243;49.118;8.508;2023-04-10T00:04:03;17.65;;;15.85;;
20166;SDS011;10243;49.118;8.508;2023-04-10T00:04:23;18.90;;;16.90;;
20166;SDS011;10243;49.118;8.508;2023-04-10T00:04:44;18.33;;;16.40;;
20166;SDS011;10243;49.118;8.508;2023-04-10T00:05:05;18.55;;;16.55;;
20166;SDS011;10243;49.118;8.508;2023-04-10T00:05:29;18.23;;;16.33;;
20166;SDS011;10243;49.118;8.508;2023-04-10T00:05:50;18.45;;;16.48;;
20166;SDS011;10243;49.118;8.508;2023-04-10T00:06:13;18.33;;;15.77;;
20166;SDS011;10243;49.118;8.508;2023-04-10T00:06:35;19.08;;;15.95;;
20166;SDS011;10243;49.118;8.508;2023-04-10T00:06:55;19.40;;;16.67;;
20166;SDS011;10243;49.118;8.508;2023-04-10T00:07:15;18.17;;;15.63;;
20166;SDS011;10243;49.118;8.508;2023-04-10T00:07:36;17.50;;;15.63;;
20166;SDS011;10243;49.118;8.508;2023-04-10T00:07:57;19.10;;;16.20;;
20166;SDS011;10243;49.118;8.508;2023-04-10T00:08:17;18.38;;;16.02;;
20166;SDS011;10243;49.118;8.508;2023-04-10T00:08:38;18.50;;;16.50;;
20166;SDS011;10243;49.118;8.508;2023-04-10T00:08:59;18.88;;;16.83;;
20166;SDS011;10243;49.118;8.508;2023-04-10T00:09:20;19.43;;;17.17;;
20166;SDS011;10243;49.118;8.508;2023-04-10T00:09:40;19.90;;;17.10;;
20166;SDS011;10243;49.118;8.508;2023-04-10T00:10:00;19.60;;;17.02;;
20166;SDS011;10243;49.118;8.508;2023-04-10T00:10:21;19.13;;;17.13;;
20166;SDS011;10243;49.118;8.508;2023-04-10T00:10:42;20.00;;;17.55;;
20166;SDS011;10243;49.118;8.508;2023-04-10T00:11:03;21.00;;;17.33;;
20166;SDS011;10243;49.118;8.508;2023-04-10T00:11:23;19.60;;;16.83;;
20166;SDS011;10243;49.118;8.508;2023-04-10T00:11:45;18.63;;;16.60;;
20166;SDS011;10243;49.118;8.508;2023-04-10T00:12:06;17.83;;;15.95;;
20166;SDS011;10243;49.118;8.508;2023-04-10T00:12:27;18.77;;;16.67;;
20166;SDS011;10243;49.118;8.508;2023-04-10T00:12:47;18.63;;;16.63;;
20166;SDS011;10243;49.118;8.508;2023-04-10T00:13:08;18.57;;;16.57;;
20166;SDS011;10243;49.118;8.508;2023-04-10T00:13:28;18.95;;;16.90;;
20166;SDS011;10243;49.118;8.508;2023-04-10T00:13:50;18.83;;;16.83;;
20166;SDS011;10243;49.118;8.508;2023-04-10T00:14:10;18.25;;;16.35;;
20166;SDS011;10243;49.118;8.508;2023-04-10T00:14:31;18.50;;;16.50;;
20166;SDS011;10243;49.118;8.508;2023-04-10T00:14:51;19.08;;;17.05;;
20166;SDS011;10243;49.118;8.508;2023-04-10T00:15:12;18.87;;;16.87;;
20166;SDS011;10243;49.118;8.508;2023-04-10T00:15:33;18.15;;;16.25;;
20166;SDS011;10243;49.118;8.508;2023-04-10T00:15:54;17.80;;;15.88;;
20166;SDS011;10243;49.118;8.508;2023-04-10T00:16:14;18.00;;;16.10;;
20166;SDS011;10243;49.118;8.508;2023-04-10T00:16:35;18.00;;;16.10;;
20166;SDS011;10243;49.118;8.508;2023-04-10T00:16:55;17.70;;;15.77;;
20166;SDS011;10243;49.118;8.508;2023-04-10T00:17:17;18.00;;;15.93;;
20166;SDS011;10243;49.118;8.508;2023-04-10T00:17:37;18.25;;;16.27;;
20166;SDS011;10243;49.118;8.508;2023-04-10T00:17:58;19.17;;;17.07;;
20166;SDS011;10243;49.118;8.508;2023-04-10T00:18:19;17.95;;;16.05;;
20166;SDS011;10243;49.118;8.508;2023-04-10T00:18:39;18.00;;;16.02;;
20166;SDS011;10243;49.118;8.508;2023-04-10T00:19:00;18.17;;;15.70;;
20166;SDS011;10243;49.118;8.508;2023-04-10T00:19:20;19.27;;;16.53;;
20166;SDS011;10243;49.118;8.508;2023-04-10T00:19:41;19.30;;;16.63;;
20166;SDS011;10243;49.118;8.508;2023-04-10T00:20:02;18.00;;;16.10;;
20166;SDS011;10243;49.118;8.508;2023-04-10T00:20:24;18.52;;;16.13;;
20166;SDS011;10243;49.118;8.508;2023-04-10T00:20:45;18.80;;;16.30;;
20166;SDS011;10243;49.118;8.508;2023-04-10T00:21:05;17.93;;;16.07;;
20166;SDS011;10243;49.118;8.508;2023-04-10T00:21:27;18.40;;;16.50;;
20166;SDS011;10243;49.118;8.508;2023-04-10T00:21:47;18.23;;;16.20;;
20166;SDS011;10243;49.118;8.508;2023-04-10T00:22:08;19.77;;;16.30;;
20166;SDS011;10243;49.118;8.508;2023-04-10T00:22:28;18.70;;;16.00;;
20166;SDS011;10243;49.118;8.508;2023-04-10T00:22:49;19.48;;;15.90;;
20166;SDS011;10243;49.118;8.508;2023-04-10T00:23:10;19.47;;;16.30;;
20166;SDS011;10243;49.118;8.508;2023-04-10T00:23:30;17.90;;;16.00;;
20166;SDS011;10243;49.118;8.508;2023-04-10T00:23:51;18.25;;;16.35;;
20166;SDS011;10243;49.118;8.508;2023-04-10T00:24:12;17.93;;;15.90;;
20166;SDS011;10243;49.118;8.508;2023-04-10T00:24:33;18.23;;;15.98;;
20166;SDS011;10243;49.118;8.508;2023-04-10T00:24:54;18.48;;;16.58;;
20166;SDS011;10243;49.118;8.508;2023-04-10T00:25:14;18.33;;;16.27;;
20166;SDS011;10243;49.118;8.508;2023-04-10T00:25:34;17.75;;;15.82;;
20166;SDS011;10243;49.118;8.508;2023-04-10T00:25:55;17.70;;;15.90;;
20166;SDS011;10243;49.118;8.508;2023-04-10T00:26:16;17.83;;;15.95;;
20166;SDS011;10243;49.118;8.508;2023-04-10T00:26:37;19.42;;;16.30;;
20166;SDS011;10243;49.118;8.508;2023-04-10T00:26:59;19.53;;;15.80;;
20166;SDS011;10243;49.118;8.508;2023-04-10T00:27:20;20.40;;;16.05;;
20166;SDS011;10243;49.118;8.508;2023-04-10T00:27:42;18.52;;;16.15;;
20166;SDS011;10243;49.118;8.508;2023-04-10T00:28:02;18.40;;;15.80;;
20166;SDS011;10243;49.118;8.508;2023-04-10T00:28:22;17.70;;;15.73;;
20166;SDS011;10243;49.118;8.508;2023-04-10T00:28:43;17.97;;;15.73;;
20166;SDS011;10243;49.118;8.508;2023-04-10T00:29:04;17.52;;;15.50;;
20166;SDS011;10243;49.118;8.508;2023-04-10T00:29:28;17.08;;;15.27;;
20166;SDS011;10243;49.118;8.508;2023-04-10T00:29:48;19.30;;;15.67;;
20166;SDS011;10243;49.118;8.508;2023-04-10T00:30:09;18.98;;;15.75;;
20166;SDS011;10243;49.118;8.508;2023-04-10T00:30:29;18.17;;;15.73;;
20166;SDS011;10243;49.118;8.508;2023-04-10T00:30:51;18.00;;;15.82;;
20166;SDS011;10243;49.118;8.508;2023-04-10T00:31:11;17.80;;;15.90;;
20166;SDS011;10243;49.118;8.508;2023-04-10T00:31:32;18.35;;;16.33;;
20166;SDS011;10243;49.118;8.508;2023-04-10T00:31:52;18.97;;;16.77;;
20166;SDS011;10243;49.118;8.508;2023-04-10T00:32:12;18.43;;;16.33;;
20166;SDS011;10243;49.118;8.508;2023-04-10T00:32:34;18.33;;;16.37;;
20166;SDS011;10243;49.118;8.508;2023-04-10T00:32:55;17.85;;;15.98;;
20166;SDS011;10243;49.118;8.508;2023-04-10T00:33:15;18.83;;;16.50;;
20166;SDS011;10243;49.118;8.508;2023-04-10T00:33:36;19.30;;;16.83;;
20166;SDS011;10243;49.118;8.508;2023-04-10T00:33:56;18.33;;;15.97;;
20166;SDS011;10243;49.118;8.508;2023-04-10T00:34:18;17.55;;;15.65;;
20166;SDS011;10243;49.118;8.508;2023-04-10T00:34:38;17.67;;;15.77;;
20166;SDS011;10243;49.118;8.508;2023-04-10T00:35:01;18.37;;;16.33;;
20166;SDS011;10243;49.118;8.508;2023-04-10T00:35:22;18.17;;;16.05;;
20166;SDS011;10243;49.118;8.508;2023-04-10T00:35:43;19.50;;;16.50;;
20166;SDS011;10243;49.118;8.508;2023-04-10T00:36:04;18.83;;;15.88;;
20166;SDS011;10243;49.118;8.508;2023-04-10T00:36:24;18.40;;;15.60;;
20166;SDS011;10243;49.118;8.508;2023-04-10T00:36:46;17.90;;;16.00;;
20166;SDS011;10243;49.118;8.508;2023-04-10T00:37:06;18.30;;;16.27;;
20166;SDS011;10243;49.118;8.508;2023-04-10T00:37:27;19.23;;;16.50;;
20166;SDS011;10243;49.118;8.508;2023-04-10T00:37:48;18.85;;;16.55;;
20166;SDS011;10243;49.118;8.508;2023-04-10T00:38:09;18.35;;;16.17;;
20166;SDS011;10243;49.118;8.508;2023-04-10T00:38:30;18.40;;;15.87;;
20166;SDS011;10243;49.118;8.508;2023-04-10T00:38:51;17.80;;;15.65;;
20166;SDS011;10243;49.118;8.508;2023-04-10T00:39:12;18.03;;;15.97;;
20166;SDS011;10243;49.118;8.508;2023-04-10T00:39:32;17.73;;;15.82;;
20166;SDS011;10243;49.118;8.508;2023-04-10T00:39:53;18.33;;;16.37;;
20166;SDS011;10243;49.118;8.508;2023-04-10T00:40:13;19.52;;;16.75;;
20166;SDS011;10243;49.118;8.508;2023-04-10T00:40:35;18.38;;;16.48;;
20166;SDS011;10243;49.118;8.508;2023-04-10T00:40:55;18.47;;;16.50;;
20166;SDS011;10243;49.118;8.508;2023-04-10T00:41:16;20.73;;;16.53;;
20166;SDS011;10243;49.118;8.508;2023-04-10T00:41:36;18.95;;;16.05;;
20166;SDS011;10243;49.118;8.508;2023-04-10T00:41:56;20.00;;;16.57;;
20166;SDS011;10243;49.118;8.508;2023-04-10T00:42:18;18.98;;;16.58;;
20166;SDS011;10243;49.118;8.508;2023-04-10T00:42:40;18.45;;;16.27;;
20166;SDS011;10243;49.118;8.508;2023-04-10T00:43:00;17.02;;;15.30;;
20166;SDS011;10243;49.118;8.508;2023-04-10T00:43:21;18.47;;;16.47;;
20166;SDS011;10243;49.118;8.508;2023-04-10T00:43:42;18.48;;;16.27;;
20166;SDS011;10243;49.118;8.508;2023-04-10T00:44:03;17.90;;;15.95;;
20166;SDS011;10243;49.118;8.508;2023-04-10T00:44:24;18.17;;;16.27;;
20166;SDS011;10243;49.118;8.508;2023-04-10T00:44:45;19.47;;;16.57;;
20166;SDS011;10243;49.118;8.508;2023-04-10T00:45:06;17.98;;;16.10;;
20166;SDS011;10243;49.118;8.508;2023-04-10T00:45:26;17.35;;;15.55;;
20166;SDS011;10243;49.118;8.508;2023-04-10T00:45:46;17.83;;;16.00;;
20166;SDS011;10243;49.118;8.508;2023-04-10T00:46:07;18.60;;;16.08;;
20166;SDS011;10243;49.118;8.508;2023-04-10T00:46:29;17.90;;;15.70;;
20166;SDS011;10243;49.118;8.508;2023-04-10T00:46:50;18.58;;;16.48;;
20166;SDS011;10243;49.118;8.508;2023-04-10T00:47:11;18.70;;;16.70;;
20166;SDS011;10243;49.118;8.508;2023-04-10T00:47:31;18.70;;;16.70;;
20166;SDS011;10243;49.118;8.508;2023-04-10T00:47:52;18.73;;;16.73;;
20166;SDS011;10243;49.118;8.508;2023-04-10T00:48:14;20.08;;;16.80;;
20166;SDS011;10243;49.118;8.508;2023-04-10T00:48:34;20.08;;;16.75;;
20166;SDS011;10243;49.118;8.508;2023-04-10T00:48:55;20.55;;;17.13;;
20166;SDS011;10243;49.118;8.508;2023-04-10T00:49:16;19.48;;;16.20;;
20166;SDS011;10243;49.118;8.508;2023-04-10T00:49:37;18.60;;;16.27;;
20166;SDS011;10243;49.118;8.508;2023-04-10T00:49:58;18.80;;;16.73;;
20166;SDS011;10243;49.118;8.508;2023-04-10T00:50:20;19.05;;;16.75;;
20166;SDS011;10243;49.118;8.508;2023-04-10T00:50:40;19.90;;;16.75;;
20166;SDS011;10243;49.118;8.508;2023-04-10T00:51:01;20.70;;;16.70;;
20166;SDS011;10243;49.118;8.508;2023-04-10T00:51:21;18.50;;;16.30;;
20166;SDS011;10243;49.118;8.508;2023-04-10T00:51:46;19.25;;;15.90;;
20166;SDS011;10243;49.118;8.508;2023-04-10T00:52:07;18.20;;;16.25;;
20166;SDS011;10243;49.118;8.508;2023-04-10T00:52:27;19.05;;;16.45;;
20166;SDS011;10243;49.118;8.508;2023-04-10T00:52:48;18.93;;;16.27;;
20166;SDS011;10243;49.118;8.508;2023-04-10T00:53:10;18.40;;;16.33;;
20166;SDS011;10243;49.118;8.508;2023-04-10T00:53:32;20.90;;;17.05;;
20166;SDS011;10243;49.118;8.508;2023-04-10T00:53:52;20.15;;;17.10;;
20166;SDS011;10243;49.118;8.508;2023-04-10T00:54:13;19.10;;;16.55;;
20166;SDS011;10243;49.118;8.508;2023-04-10T00:54:36;18.92;;;16.85;;
20166;SDS011;10243;49.118;8.508;2023-04-10T00:54:57;20.67;;;16.40;;
20166;SDS011;10243;49.118;8.508;2023-04-10T00:55:19;18.20;;;15.65;;
20166;SDS011;10243;49.118;8.508;2023-04-10T00:55:39;18.63;;;16.27;;
20166;SDS011;10243;49.118;8.508;2023-04-10T00:56:00;18.90;;;16.90;;
20166;SDS011;10243;49.118;8.508;2023-04-10T00:56:21;19.20;;;17.10;;
20166;SDS011;10243;49.118;8.508;2023-04-10T00:56:42;20.20;;;16.75;;
20166;SDS011;10243;49.118;8.508;2023-04-10T00:57:08;19.77;;;16.08;;
20166;SDS011;10243;49.118;8.508;2023-04-10T00:57:36;18.25;;;16.30;;
20166;SDS011;10243;49.118;8.508;2023-04-10T00:57:57;18.15;;;16.25;;
20166;SDS011;10243;49.118;8.508;2023-04-10T00:58:17;18.33;;;16.35;;
20166;SDS011;10243;49.118;8.508;2023-04-10T00:58:39;18.13;;;16.02;;
20166;SDS011;10243;49.118;8.508;2023-04-10T00:58:59;17.30;;;15.50;;
20166;SDS011;10243;49.118;8.508;2023-04-10T00:59:21;17.25;;;15.55;;
20166;SDS011;10243;49.118;8.508;2023-04-10T00:59:42;18.37;;;16.27;;
20166;SDS011;10243;49.118;8.508;2023-04-10T01:00:03;18.40;;;16.33;;
20166;SDS011;10243;49.118;8.508;2023-04-10T01:00:26;18.92;;;16.67;;
20166;SDS011;10243;49.118;8.508;2023-04-10T01:00:46;20.50;;;16.20;;
20166;SDS011;10243;49.118;8.508;2023-04-10T01:01:07;18.83;;;16.40;;
20166;SDS011;10243;49.118;8.508;2023-04-10T01:01:27;18.23;;;16.20;;
20166;SDS011;10243;49.118;8.508;2023-04-10T01:01:50;20.25;;;16.52;;
20166;SDS011;10243;49.118;8.508;2023-04-10T01:02:11;18.85;;;16.38;;
20166;SDS011;10243;49.118;8.508;2023-04-10T01:02:32;18.15;;;16.25;;
20166;SDS011;10243;49.118;8.508;2023-04-10T01:02:52;17.80;;;15.90;;
20166;SDS011;10243;49.118;8.508;2023-04-10T01:03:14;17.85;;;15.95;;
20166;SDS011;10243;49.118;8.508;2023-04-10T01:03:35;18.20;;;16.25;;
20166;SDS011;10243;49.118;8.508;2023-04-10T01:03:56;17.58;;;15.75;;
20166;SDS011;10243;49.118;8.508;2023-04-10T01:04:19;18.15;;;16.25;;
20166;SDS011;10243;49.118;8.508;2023-04-10T01:04:39;19.13;;;16.53;;
20166;SDS011;10243;49.118;8.508;2023-04-10T01:05:00;18.63;;;16.15;;
20166;SDS011;10243;49.118;8.508;2023-04-10T01:05:21;19.88;;;16.42;;
20166;SDS011;10243;49.118;8.508;2023-04-10T01:05:43;18.48;;;16.45;;
20166;SDS011;10243;49.118;8.508;2023-04-10T01:06:07;18.67;;;16.10;;
20166;SDS011;10243;49.118;8.508;2023-04-10T01:06:34;18.65;;;16.67;;
20166;SDS011;10243;49.118;8.508;2023-04-10T01:07:03;20.52;;;15.77;;
20166;SDS011;10243;49.118;8.508;2023-04-10T01:07:27;18.50;;;16.58;;
20166;SDS011;10243;49.118;8.508;2023-04-10T01:07:53;18.75;;;16.75;;
20166;SDS011;10243;49.118;8.508;2023-04-10T01:08:20;18.17;;;16.27;;
20166;SDS011;10243;49.118;8.508;2023-04-10T01:08:44;18.08;;;15.85;;
20166;SDS011;10243;49.118;8.508;2023-04-10T01:09:09;19.10;;;16.67;;
20166;SDS011;10243;49.118;8.508;2023-04-10T01:09:34;19.33;;;16.92;;
20166;SDS011;10243;49.118;8.508;2023-04-10T01:09:59;19.65;;;16.88;;
20166;SDS011;10243;49.118;8.508;2023-04-10T01:10:25;19.13;;;16.67;;
20166;SDS011;10243;49.118;8.508;2023-04-10T01:10:50;20.33;;;17.63;;
20166;SDS011;10243;49.118;8.508;2023-04-10T01:11:12;19.15;;;17.00;;
20166;SDS011;10243;49.118;8.508;2023-04-10T01:11:38;19.40;;;16.80;;
20166;SDS011;10243;49.118;8.508;2023-04-10T01:12:05;18.65;;;16.33;;
20166;SDS011;10243;49.118;8.508;2023-04-10T01:12:33;19.35;;;16.48;;
20166;SDS011;10243;49.118;8.508;2023-04-10T01:13:00;18.73;;;16.73;;
20166;SDS011;10243;49.118;8.508;2023-04-10T01:13:26;18.70;;;16.63;;
20166;SDS011;10243;49.118;8.508;2023-04-10T01:13:49;20.42;;;17.13;;
20166;SDS011;10243;49.118;8.508;2023-04-10T01:14:14;19.58;;;17.25;;
20166;SDS011;10243;49.118;8.508;2023-04-10T01:14:37;18.70;;;16.70;;
20166;SDS011;10243;49.118;8.508;2023-04-10T01:15:07;18.13;;;16.23;;
20166;SDS011;10243;49.118;8.508;2023-04-10T01:15:29;19.38;;;17.33;;
20166;SDS011;10243;49.118;8.508;2023-04-10T01:15:57;19.50;;;17.42;;
20166;SDS011;10243;49.118;8.508;2023-04-10T01:16:22;19.08;;;17.17;;
20166;SDS011;10243;49.118;8.508;2023-04-10T01:16:45;18.00;;;16.10;;
20166;SDS011;10243;49.118;8.508;2023-04-10T01:17:12;19.80;;;17.45;;
20166;SDS011;10243;49.118;8.508;2023-04-10T01:17:34;19.40;;;16.73;;
20166;SDS011;10243;49.118;8.508;2023-04-10T01:17:58;19.15;;;16.50;;
20166;SDS011;10243;49.118;8.508;2023-04-10T01:18:23;20.02;;;17.33;;
20166;SDS011;10243;49.118;8.508;2023-04-10T01:18:47;18.80;;;16.80;;
20166;SDS011;10243;49.118;8.508;2023-04-10T01:19:14;20.35;;;17.35;;
20166;SDS011;10243;49.118;8.508;2023-04-10T01:19:45;19.92;;;17.75;;
20166;SDS011;10243;49.118;8.508;2023-04-10T01:20:08;20.08;;;17.92;;
20166;SDS011;10243;49.118;8.508;2023-04-10T01:20:30;21.67;;;17.75;;
20166;SDS011;10243;49.118;8.508;2023-04-10T01:20:51;22.77;;;18.23;;
20166;SDS011;10243;49.118;8.508;2023-04-10T01:21:12;20.98;;;18.45;;
20166;SDS011;10243;49.118;8.508;2023-04-10T01:21:34;20.60;;;18.15;;
20166;SDS011;10243;49.118;8.508;2023-04-10T01:21:56;22.27;;;19.15;;
20166;SDS011;10243;49.118;8.508;2023-04-10T01:22:18;21.13;;;18.85;;
20166;SDS011;10243;49.118;8.508;2023-04-10T01:22:44;20.42;;;18.23;;
20166;SDS011;10243;49.118;8.508;2023-04-10T01:23:17;21.00;;;17.90;;
20166;SDS011;10243;49.118;8.508;2023-04-10T01:23:49;20.30;;;18.08;;
20166;SDS011;10243;49.118;8.508;2023-04-10T01:24:17;20.30;;;18.10;;
20166;SDS011;10243;49.118;8.508;2023-04-10T01:24:45;19.70;;;17.60;;
20166;SDS011;10243;49.118;8.508;2023-04-10T01:25:45;20.80;;;17.88;;
20166;SDS011;10243;49.118;8.508;2023-04-10T01:26:08;21.98;;;18.20;;
20166;SDS011;10243;49.118;8.508;2023-04-10T01:26:35;21.40;;;17.90;;
20166;SDS011;10243;49.118;8.508;2023-04-10T01:27:03;20.65;;;18.00;;
20166;SDS011;10243;49.118;8.508;2023-04-10T01:27:35;20.13;;;17.92;;
20166;SDS011;10243;49.118;8.508;2023-04-10T01:28:01;21.42;;;17.92;;
20166;SDS011;10243;49.118;8.508;2023-04-10T01:28:58;20.70;;;17.42;;
20166;SDS011;10243;49.118;8.508;2023-04-10T01:29:19;21.08;;;18.33;;
20166;SDS011;10243;49.118;8.508;2023-04-10T01:29:40;21.03;;;18.10;;
20166;SDS011;10243;49.118;8.508;2023-04-10T01:30:02;20.45;;;18.25;;
20166;SDS011;10243;49.118;8.508;2023-04-10T01:30:24;22.48;;;18.10;;
20166;SDS011;10243;49.118;8.508;2023-04-10T01:30:46;22.00;;;18.05;;
20166;SDS011;10243;49.118;8.508;2023-04-10T01:31:07;22.83;;;17.85;;
20166;SDS011;10243;49.118;8.508;2023-04-10T01:31:33;20.80;;;17.85;;
20166;SDS011;10243;49.118;8.508;2023-04-10T01:31:56;19.85;;;17.73;;
20166;SDS011;10243;49.118;8.508;2023-04-10T01:32:19;20.40;;;18.20;;
20166;SDS011;10243;49.118;8.508;2023-04-10T01:32:40;20.45;;;17.88;;
20166;SDS011;10243;49.118;8.508;2023-04-10T01:33:00;23.35;;;18.25;;
20166;SDS011;10243;49.118;8.508;2023-04-10T01:33:23;21.38;;;17.30;;
20166;SDS011;10243;49.118;8.508;2023-04-10T01:33:48;20.00;;;17.75;;
20166;SDS011;10243;49.118;8.508;2023-04-10T01:34:11;20.70;;;17.38;;
20166;SDS011;10243;49.118;8.508;2023-04-10T01:34:34;21.48;;;18.02;;
20166;SDS011;10243;49.118;8.508;2023-04-10T01:34:57;20.80;;;18.27;;
20166;SDS011;10243;49.118;8.508;2023-04-10T01:35:20;20.65;;;18.08;;
20166;SDS011;10243;49.118;8.508;2023-04-10T01:35:41;20.83;;;18.00;;
20166;SDS011;10243;49.118;8.508;2023-04-10T01:36:03;20.77;;;17.45;;
20166;SDS011;10243;49.118;8.508;2023-04-10T01:36:26;21.00;;;18.15;;
20166;SDS011;10243;49.118;8.508;2023-04-10T01:36:48;21.00;;;17.75;;
20166;SDS011;10243;49.118;8.508;2023-04-10T01:37:11;19.63;;;17.25;;
20166;SDS011;10243;49.118;8.508;2023-04-10T01:37:32;19.92;;;17.50;;
20166;SDS011;10243;49.118;8.508;2023-04-10T01:37:54;19.27;;;17.25;;
20166;SDS011;10243;49.118;8.508;2023-04-10T01:38:15;19.27;;;17.27;;
20166;SDS011;10243;49.118;8.508;2023-04-10T01:38:37;19.55;;;17.45;;
20166;SDS011;10243;49.118;8.508;2023-04-10T01:39:00;20.45;;;18.25;;
20166;SDS011;10243;49.118;8.508;2023-04-10T01:39:21;20.38;;;18.20;;
20166;SDS011;10243;49.118;8.508;2023-04-10T01:39:43;20.20;;;17.75;;
20166;SDS011;10243;49.118;8.508;2023-04-10T01:40:07;19.65;;;17.55;;
20166;SDS011;10243;49.118;8.508;2023-04-10T01:40:29;19.58;;;17.48;;
20166;SDS011;10243;49.118;8.508;2023-04-10T01:40:52;21.42;;;17.77;;
20166;SDS011;10243;49.118;8.508;2023-04-10T01:41:20;19.50;;;17.13;;
20166;SDS011;10243;49.118;8.508;2023-04-10T01:41:41;19.88;;;17.40;;
20166;SDS011;10243;49.118;8.508;2023-04-10T01:42:05;22.20;;;18.83;;
20166;SDS011;10243;49.118;8.508;2023-04-10T01:42:30;21.40;;;18.58;;
20166;SDS011;10243;49.118;8.508;2023-04-10T01:42:53;21.25;;;18.75;;
20166;SDS011;10243;49.118;8.508;2023-04-10T01:43:19;21.63;;;18.48;;
20166;SDS011;10243;49.118;8.508;2023-04-10T01:43:44;21.42;;;19.13;;
20166;SDS011;10243;49.118;8.508;2023-04-10T01:44:08;22.42;;;19.35;;
20166;SDS011;10243;49.118;8.508;2023-04-10T01:44:30;22.95;;;19.52;;
20166;SDS011;10243;49.118;8.508;2023-04-10T01:44:52;23.90;;;19.15;;
20166;SDS011;10243;49.118;8.508;2023-04-10T01:45:16;22.98;;;19.05;;
20166;SDS011;10243;49.118;8.508;2023-04-10T01:45:39;22.17;;;19.25;;
20166;SDS011;10243;49.118;8.508;2023-04-10T01:46:01;22.75;;;19.15;;
20166;SDS011;10243;49.118;8.508;2023-04-10T01:46:23;22.77;;;19.17;;
20166;SDS011;10243;49.118;8.508;2023-04-10T01:46:44;20.67;;;18.38;;
20166;SDS011;10243;49.118;8.508;2023-04-10T01:47:05;21.63;;;18.50;;
20166;SDS011;10243;49.118;8.508;2023-04-10T01:47:26;23.15;;;19.42;;
20166;SDS011;10243;49.118;8.508;2023-04-10T01:47:47;23.35;;;18.90;;
20166;SDS011;10243;49.118;8.508;2023-04-10T01:48:25;24.13;;;19.00;;
20166;SDS011;10243;49.118;8.508;2023-04-10T01:48:45;22.10;;;19.33;;
20166;SDS011;10243;49.118;8.508;2023-04-10T01:49:06;22.38;;;18.52;;
20166;SDS011;10243;49.118;8.508;2023-04-10T01:49:28;22.20;;;18.40;;
20166;SDS011;10243;49.118;8.508;2023-04-10T01:49:56;21.33;;;19.02;;
20166;SDS011;10243;49.118;8.508;2023-04-10T01:50:16;20.77;;;18.50;;
20166;SDS011;10243;49.118;8.508;2023-04-10T01:50:37;21.35;;;18.80;;
20166;SDS011;10243;49.118;8.508;2023-04-10T01:50:59;22.83;;;19.30;;
20166;SDS011;10243;49.118;8.508;2023-04-10T01:51:20;22.40;;;18.80;;
20166;SDS011;10243;49.118;8.508;2023-04-10T01:51:42;21.45;;;19.15;;
20166;SDS011;10243;49.118;8.508;2023-04-10T01:52:05;21.08;;;18.48;;
20166;SDS011;10243;49.118;8.508;2023-04-10T01:52:26;21.27;;;18.63;;
20166;SDS011;10243;49.118;8.508;2023-04-10T01:53:06;22.52;;;18.95;;
20166;SDS011;10243;49.118;8.508;2023-04-10T01:53:27;22.42;;;19.25;;
20166;SDS011;10243;49.118;8.508;2023-04-10T01:53:48;21.98;;;18.80;;
20166;SDS011;10243;49.118;8.508;2023-04-10T01:54:11;21.38;;;18.73;;
20166;SDS011;10243;49.118;8.508;2023-04-10T01:54:33;21.38;;;18.60;;
20166;SDS011;10243;49.118;8.508;2023-04-10T01:54:55;20.42;;;18.23;;
20166;SDS011;10243;49.118;8.508;2023-04-10T01:55:25;19.00;;;17.00;;
20166;SDS011;10243;49.118;8.508;2023-04-10T01:55:51;22.42;;;18.80;;
20166;SDS011;10243;49.118;8.508;2023-04-10T01:56:12;24.23;;;19.27;;
20166;SDS011;10243;49.118;8.508;2023-04-10T01:56:37;22.55;;;19.05;;
20166;SDS011;10243;49.118;8.508;2023-04-10T01:56:58;22.00;;;18.02;;
20166;SDS011;10243;49.118;8.508;2023-04-10T01:57:19;21.10;;;17.50;;
20166;SDS011;10243;49.118;8.508;2023-04-10T01:57:47;20.73;;;17.85;;
20166;SDS011;10243;49.118;8.508;2023-04-10T01:58:08;21.30;;;18.05;;
20166;SDS011;10243;49.118;8.508;2023-04-10T01:58:29;19.73;;;17.05;;
20166;SDS011;10243;49.118;8.508;2023-04-10T01:58:51;18.00;;;16.10;;
20166;SDS011;10243;49.118;8.508;2023-04-10T01:59:13;18.10;;;16.02;;
20166;SDS011;10243;49.118;8.508;2023-04-10T01:59:36;18.55;;;16.52;;
20166;SDS011;10243;49.118;8.508;2023-04-10T01:59:57;18.15;;;16.05;;
20166;SDS011;10243;49.118;8.508;2023-04-10T02:00:18;17.45;;;15.48;;
20166;SDS011;10243;49.118;8.508;2023-04-10T02:00:40;17.52;;;15.45;;
20166;SDS011;10243;49.118;8.508;2023-04-10T02:01:03;17.48;;;15.57;;
20166;SDS011;10243;49.118;8.508;2023-04-10T02:01:25;17.40;;;15.25;;
20166;SDS011;10243;49.118;8.508;2023-04-10T02:01:46;16.98;;;15.18;;
20166;SDS011;10243;49.118;8.508;2023-04-10T02:02:06;17.37;;;15.57;;
20166;SDS011;10243;49.118;8.508;2023-04-10T02:02:28;17.30;;;15.50;;
20166;SDS011;10243;49.118;8.508;2023-04-10T02:02:51;18.48;;;15.77;;
20166;SDS011;10243;49.118;8.508;2023-04-10T02:03:12;19.45;;;15.93;;
20166;SDS011;10243;49.118;8.508;2023-04-10T02:03:32;22.50;;;17.37;;
20166;SDS011;10243;49.118;8.508;2023-04-10T02:03:53;20.50;;;16.65;;
20166;SDS011;10243;49.118;8.508;2023-04-10T02:04:14;20.52;;;16.73;;
20166;SDS011;10243;49.118;8.508;2023-04-10T02:04:35;22.77;;;17.55;;
20166;SDS011;10243;49.118;8.508;2023-04-10T02:04:56;21.80;;;17.50;;
20166;SDS011;10243;49.118;8.508;2023-04-10T02:05:16;21.07;;;17.40;;
20166;SDS011;10243;49.118;8.508;2023-04-10T02:05:39;20.48;;;16.92;;
20166;SDS011;10243;49.118;8.508;2023-04-10T02:06:05;19.75;;;17.17;;
20166;SDS011;10243;49.118;8.508;2023-04-10T02:06:32;18.85;;;16.63;;
20166;SDS011;10243;49.118;8.508;2023-04-10T02:07:01;18.95;;;15.73;;
20166;SDS011;10243;49.118;8.508;2023-04-10T02:07:24;17.90;;;15.30;;
20166;SDS011;10243;49.118;8.508;2023-04-10T02:07:52;17.55;;;15.68;;
20166;SDS011;10243;49.118;8.508;2023-04-10T02:08:18;17.42;;;15.63;;
20166;SDS011;10243;49.118;8.508;2023-04-10T02:08:41;17.13;;;15.35;;
20166;SDS011;10243;49.118;8.508;2023-04-10T02:09:03;18.15;;;15.85;;
20166;SDS011;10243;49.118;8.508;2023-04-10T02:09:30;18.90;;;15.77;;
20166;SDS011;10243;49.118;8.508;2023-04-10T02:10:00;17.77;;;15.88;;
20166;SDS011;10243;49.118;8.508;2023-04-10T02:10:23;18.48;;;15.80;;
20166;SDS011;10243;49.118;8.508;2023-04-10T02:10:50;18.67;;;16.23;;
20166;SDS011;10243;49.118;8.508;2023-04-10T02:11:12;17.73;;;15.70;;
20166;SDS011;10243;49.118;8.508;2023-04-10T02:11:36;17.65;;;15.75;;